• Join FlightAware (Why Join?)
  • Login
  • US Flag 
06:28PM EST


 

Airport Tracker/Info


-or-


 

Live Flight TrackerFlight Track Log ✈ DAL6234 ✈ 21-Apr-2013 ✈ KLGA - KSYR

Flight Track Log - Related Links

Times and Time Zones

All times are in EDT time to prevent confusion due to time zone crossing. See the DAL6234 flight status page for this flight to view local times or setup timezone preferences in your user account.

Time Position Orientation Groundspeed Altitude Reporting Facility
EDT Latitude Longitude Course Direction KTS MPH feet Rate Location/Type
03:47PM 40.7333 -73.8333 313° West 189 217 2,700  Level New York TRACON
03:48PM 40.7333 -73.7833 90° East 210 242 5,400 2,520 Climbing New York TRACON
03:49PM 40.7833 -73.7167 45° Northeast 252 290 7,800 1,800 Climbing New York TRACON
03:50PM 40.8333 -73.6667 37° Northeast 278 320 9,000 600 Climbing New York TRACON
03:51PM 40.9000 -73.7167 330° Northwest 267 307 9,000  Level New York TRACON
03:52PM 40.9500 -73.7667 323° Northwest 273 314 9,000 60 Level New York TRACON
03:53PM 41.0623 -74.3246 313° West  Level FlightAware Approximate
03:53PM 41.0000 -73.8500 309° West 277 319 9,200  Level New York TRACON
03:54PM 41.0500 -73.9333 309° West 278 320 12,200 2,880 Climbing New York TRACON
03:55PM 41.0667 -74.0333 282° West 281 323 15,000 1,860 Climbing New York TRACON
03:56PM 41.1000 -74.1333 294° West 284 327 16,000 360 Climbing New York TRACON
03:58PM 41.1486 -74.2981 291° West 290 334 16,000  Level New York Center
03:59PM 41.1769 -74.3931 292° West 290 334 16,000  Level New York Center
04:00PM 41.2031 -74.4911 290° West 290 334 16,000 300 Level New York Center
04:01PM 41.2375 -74.5842 296° West 290 334 16,700 1,080 Climbing New York Center
04:02PM 41.2847 -74.6694 306° West 285 328 18,300 1,860 Climbing New York Center
04:03PM 41.3322 -74.7469 309° West 295 339 20,500 1,860 Climbing New York Center
04:04PM 41.3875 -74.8358 310° West 301 346 22,000 720 Climbing New York Center
04:05PM 41.4525 -74.9394 310° West 331 381 22,000  Level New York Center
04:06PM 41.5175 -75.0433 310° West 354 407 22,000  Level New York Center
04:07PM 41.5806 -75.1442 310° West 360 414 22,000  Level New York Center
04:08PM 41.6433 -75.2483 309° West 360 414 22,000  Level New York Center
04:09PM 41.7039 -75.3525 308° West 360 414 22,000  Level New York Center
04:10PM 41.7644 -75.4539 309° West 360 414 22,000  Level New York Center
04:11PM 41.8228 -75.5581 307° West 354 407 22,000  Level New York Center
04:12PM 41.8831 -75.6572 309° West 354 407 22,000 -120 Level New York Center
04:13PM 41.9433 -75.7619 308° West 354 407 21,800 -900 Descending New York Center
04:14PM 42.0014 -75.8669 307° West 359 413 20,300 -1,500 Descending New York Center
04:15PM 42.0614 -75.9722 308° West 359 413 18,900 -1,140 Descending New York Center
04:16PM 42.1194 -76.0717 308° West 359 413 18,100 -960 Descending New York Center
04:17PM 42.1981 -76.1311 331° Northwest 334 384 17,000 -1,320 Descending New York Center
04:18PM 42.2961 -76.1253 North 318 366 15,600 -1,740 Descending New York Center
04:19PM 42.3719 -76.1192 North 348 400 14,200 -1,920 Descending Boston Center
04:20PM 42.4600 -76.1075 North 343 395 12,600 -1,680 Descending Boston Center
04:21PM 42.5478 -76.0986 North 332 382 11,000 -1,140 Descending Boston Center
04:22PM 42.6336 -76.0922 North 294 338 10,400 -1,200 Descending Boston Center
04:23PM 42.7131 -76.0856 North 262 302 8,600 -1,680 Descending Boston Center
04:24PM 42.7858 -76.0844 North 256 295 7,000 -1,620 Descending Boston Center
04:25PM 42.8547 -76.0856 359° North 248 285 5,400 -1,680 Descending Boston Center
04:26PM 42.9217 -76.0753 North 241 277 3,700 -1,440 Descending Boston Center
04:27PM 42.9850 -76.0508 16° North 227 261 2,600 -1,080 Descending Boston Center
04:28PM 43.0400 -76.0311 15° North 210 242 1,600 -600 Descending Boston Center
04:29PM 43.0922 -76.0286 North 153 176 1,500 -360 Descending Boston Center
04:30PM 43.1117 -76.0725 301° West 127 146 900 -600 Descending Boston Center